Time;durP1;ratioP1;P1;durP2;ratioP2;P2;SDS_P1;SDS_P2;PMS_P1;PMS_P2;Temp;Humidity;BMP_temperature;BMP_pressure;BME280_temperature;BME280_humidity;BME280_pressure;Samples;Min_cycle;Max_cycle;Signal;HPM_P1;HPM_P2
2023/09/01 00:38:42;;;;;;;5.63;3.90;;;;;;;9.55;100.00;95648.00;7433146;19;20400;-95
2023/09/01 00:41:22;;;;;;;5.20;3.07;;;;;;;11.75;100.00;95973.59;7436483;19;20405;-95
2023/09/01 00:44:03;;;;;;;4.87;3.40;;;;;;;9.46;100.00;95667.38;7431906;19;20403;-95
2023/09/01 00:49:54;;;;;;;10.60;4.20;;;;;;;9.58;100.00;95766.84;7432747;19;20427;-96
2023/09/01 03:13:09;;;;;;;6.37;4.30;;;;;;;9.07;100.00;95613.50;7406260;19;20428;-95
2023/09/01 03:15:54;;;;;;;5.30;4.60;;;;;;;8.86;100.00;95578.66;7434371;19;20420;-94
2023/09/01 03:18:44;;;;;;;9.33;4.33;;;;;;;9.22;100.00;95646.34;7439249;19;20388;-94
2023/09/01 03:21:30;;;;;;;7.40;5.27;;;;;;;10.05;100.00;95774.22;7438916;19;20389;-94
2023/09/01 04:12:54;;;;;;;7.43;4.43;;;;;;;10.18;100.00;95804.75;7437934;19;20413;-94
2023/09/01 04:15:34;;;;;;;7.00;5.03;;;;;;;10.90;100.00;95913.97;7436415;19;20395;-95
2023/09/01 04:18:52;;;;;;;7.57;4.90;;;;;;;10.89;100.00;95903.72;7438548;19;20387;-94
2023/09/01 04:21:47;;;;;;;12.97;4.50;;;;;;;10.30;100.00;95801.34;7435735;19;20459;-95
2023/09/01 04:24:59;;;;;;;5.90;4.30;;;;;;;10.23;100.00;95812.47;7435746;19;20395;-94
2023/09/01 04:28:24;;;;;;;5.13;4.50;;;;;;;10.93;100.00;95905.34;7435325;19;20421;-94
2023/09/01 04:31:33;;;;;;;7.13;4.70;;;;;;;9.51;100.00;95692.00;7432029;19;20415;-94
2023/09/01 04:34:23;;;;;;;5.53;4.97;;;;;;;9.39;100.00;95684.88;7435158;19;20450;-93
2023/09/01 04:37:32;;;;;;;5.13;4.00;;;;;;;10.52;100.00;95853.66;7435399;19;20375;-94
2023/09/01 04:41:07;;;;;;;7.83;4.73;;;;;;;10.25;100.00;95791.75;7434495;19;20384;-92
2023/09/01 04:44:02;;;;;;;5.50;5.00;;;;;;;10.21;100.00;95785.63;7434982;19;20399;-93
2023/09/01 04:47:12;;;;;;;10.60;5.20;;;;;;;10.28;100.00;95771.81;7431106;19;20405;-94
2023/09/01 04:49:50;;;;;;;6.70;4.60;;;;;;;9.55;100.00;95659.34;7436283;19;20380;-94
2023/09/01 06:02:55;;;;;;;5.70;3.90;;;;;;;10.96;100.00;95877.47;7335112;19;20452;-95
2023/09/01 06:05:23;;;;;;;6.50;4.60;;;;;;;11.25;100.00;95916.00;7430877;19;20385;-95
2023/09/01 06:07:50;;;;;;;7.00;5.30;;;;;;;11.36;100.00;95924.97;7428139;19;20389;-95
2023/09/01 06:10:19;;;;;;;4.43;4.03;;;;;;;10.80;100.00;95831.69;7433869;19;20416;-94
2023/09/01 06:12:46;;;;;;;4.40;3.40;;;;;;;11.39;100.00;95924.28;7428199;19;20414;-94
2023/09/01 06:15:15;;;;;;;4.53;3.83;;;;;;;11.51;100.00;95936.69;7433027;19;20389;-94
2023/09/01 06:17:42;;;;;;;5.00;4.00;;;;;;;10.81;100.00;95836.66;7431973;19;20388;-94
2023/09/01 06:20:13;;;;;;;4.60;3.90;;;;;;;10.00;100.00;95706.53;7433325;19;20385;-93
2023/09/01 06:22:46;;;;;;;3.03;2.83;;;;;;;10.88;100.00;95842.13;7430130;19;20490;-95
2023/09/01 06:25:14;;;;;;;4.53;3.57;;;;;;;11.34;100.00;95899.94;7433508;19;20388;-94
2023/09/01 06:27:41;;;;;;;7.33;3.47;;;;;;;11.21;100.00;95870.13;7427818;19;20377;-93
2023/09/01 06:30:08;;;;;;;5.80;4.30;;;;;;;10.52;100.00;95784.91;7433071;19;20393;-95
2023/09/01 06:32:35;;;;;;;4.00;3.60;;;;;;;10.43;100.00;95763.19;7430091;19;20446;-95
2023/09/01 06:35:03;;;;;;;5.50;3.83;;;;;;;11.06;100.00;95860.31;7433919;19;20396;-95
2023/09/01 06:37:30;;;;;;;4.53;3.47;;;;;;;10.98;100.00;95834.81;7431517;19;20414;-95
2023/09/01 06:40:04;;;;;;;4.10;3.00;;;;;;;11.25;100.00;95882.38;7434002;19;20381;-95
2023/09/01 06:42:31;;;;;;;4.10;3.70;;;;;;;10.95;100.00;95818.53;7430617;19;20472;-94
2023/09/01 06:44:58;;;;;;;3.30;2.97;;;;;;;10.97;100.00;95807.59;7427869;19;20385;-95
2023/09/01 06:47:25;;;;;;;3.37;3.07;;;;;;;11.12;100.00;95846.50;7430744;19;20387;-93
2023/09/01 06:49:52;;;;;;;3.33;3.10;;;;;;;11.01;100.00;95819.03;7429632;19;20398;-96
2023/09/01 06:52:19;;;;;;;5.27;4.40;;;;;;;11.87;100.00;95945.47;7430238;19;20428;-94
2023/09/01 06:54:47;;;;;;;5.13;3.10;;;;;;;11.53;100.00;95892.09;7430710;19;20389;-95
2023/09/01 06:57:14;;;;;;;2.90;2.70;;;;;;;10.76;100.00;95775.31;7432489;19;20393;-94
2023/09/01 06:59:41;;;;;;;3.47;3.27;;;;;;;10.44;100.00;95734.88;7430116;19;20396;-94
2023/09/01 07:02:08;;;;;;;3.50;3.30;;;;;;;10.71;100.00;95763.13;7430190;19;20420;-95
2023/09/01 07:04:36;;;;;;;3.50;3.20;;;;;;;11.16;100.00;95818.25;7430313;19;20400;-93
2023/09/01 07:07:03;;;;;;;3.83;2.97;;;;;;;10.72;100.00;95722.38;7430820;19;20377;-94
2023/09/01 07:09:30;;;;;;;3.00;2.80;;;;;;;11.58;100.00;95848.69;7430122;19;20444;-95
2023/09/01 07:11:58;;;;;;;3.20;3.00;;;;;;;10.92;100.00;95728.47;7430388;19;20420;-96
2023/09/01 07:14:25;;;;;;;2.80;2.60;;;;;;;11.62;100.00;95818.56;7429973;19;20404;-95
2023/09/01 07:16:53;;;;;;;3.23;2.93;;;;;;;11.61;100.00;95813.59;7431448;19;20464;-93
2023/09/01 07:19:22;;;;;;;3.73;2.17;;;;;;;11.40;100.00;95787.41;7431035;19;20389;-95
2023/09/01 07:21:55;;;;;;;2.47;2.27;;;;;;;12.25;100.00;95902.41;7430565;19;20424;-94
2023/09/01 07:24:22;;;;;;;2.30;2.20;;;;;;;12.00;100.00;95862.13;7430174;19;20400;-95
2023/09/01 07:26:50;;;;;;;2.20;1.97;;;;;;;12.10;100.00;95883.56;7427373;19;20385;-95
2023/09/01 07:29:37;;;;;;;2.70;2.50;;;;;;;12.52;100.00;95943.13;7429938;19;20373;-94
2023/09/01 07:32:18;;;;;;;2.97;2.60;;;;;;;11.09;100.00;95725.50;7425555;19;20420;-94
2023/09/01 07:35:03;;;;;;;3.50;3.23;;;;;;;11.93;100.00;95862.00;7431540;19;20396;-93
2023/09/01 07:37:34;;;;;;;2.30;2.20;;;;;;;12.67;100.00;95952.91;7427019;19;20373;-93
2023/09/01 08:06:19;;;;;;;2.07;1.70;;;;;;;11.69;100.00;95747.19;7436692;19;20373;-95
2023/09/01 08:08:47;;;;;;;1.80;1.70;;;;;;;11.82;100.00;95745.97;7435670;19;20388;-94
2023/09/01 08:11:14;;;;;;;2.00;1.90;;;;;;;12.78;100.00;95873.53;7432999;19;20412;-94
2023/09/01 08:13:41;;;;;;;1.90;1.70;;;;;;;12.85;100.00;95855.09;7434162;19;20381;-95
2023/09/01 08:16:08;;;;;;;2.87;1.80;;;;;;;12.51;100.00;95772.66;7435864;19;20392;-95
2023/09/01 09:10:15;;;;;;;1.47;1.37;;;;;;;13.36;100.00;95924.69;7417990;19;20452;-94
2023/09/01 09:12:52;;;;;;;1.43;1.20;;;;;;;12.96;100.00;95878.06;7432738;19;20392;-94
2023/09/01 09:15:22;;;;;;;1.10;1.00;;;;;;;13.98;100.00;96025.50;7435908;19;20429;-94
2023/09/01 09:17:55;;;;;;;1.63;1.50;;;;;;;13.16;100.00;95881.44;7433978;19;20432;-94
2023/09/01 09:20:39;;;;;;;2.23;1.23;;;;;;;12.40;100.00;95795.53;7435585;19;20448;-94
2023/09/01 09:23:13;;;;;;;1.40;1.30;;;;;;;13.10;100.00;95896.13;7434783;19;20396;-94
2023/09/01 09:25:50;;;;;;;1.40;1.30;;;;;;;13.05;100.00;95880.47;7435439;19;20428;-93
2023/09/01 09:28:21;;;;;;;4.07;1.30;;;;;;;14.20;100.00;96024.72;7433215;19;20377;-94
2023/09/01 09:30:53;;;;;;;1.50;1.40;;;;;;;13.47;100.00;95933.56;7433221;19;20432;-94
2023/09/01 09:33:42;;;;;;;1.67;1.47;;;;;;;13.50;100.00;95910.88;7435438;19;20393;-95
2023/09/01 09:36:54;;;;;;;2.10;2.00;;;;;;;13.29;100.00;95890.78;7434657;19;20385;-94
2023/09/01 09:39:44;;;;;;;1.53;1.43;;;;;;;14.40;100.00;96012.84;7433750;19;20392;-93
2023/09/01 09:42:41;;;;;;;1.70;1.60;;;;;;;13.20;100.00;95839.81;7431546;19;20476;-93
2023/09/01 09:45:20;;;;;;;1.50;1.40;;;;;;;13.49;100.00;95883.53;7432329;19;20407;-93
2023/09/01 09:47:58;;;;;;;1.60;1.50;;;;;;;13.88;100.00;95931.19;7433617;19;20420;-93
2023/09/01 09:50:49;;;;;;;1.77;1.13;;;;;;;13.80;100.00;95913.59;7433661;19;20432;-92
2023/09/01 09:53:39;;;;;;;1.30;1.20;;;;;;;13.09;100.00;95819.50;7432952;19;20369;-94
2023/09/01 09:56:33;;;;;;;2.10;0.97;;;;;;;14.58;100.00;96010.50;7435250;19;20381;-94
2023/09/01 09:59:24;;;;;;;3.40;1.73;;;;;;;12.87;100.00;95786.53;7429668;19;20385;-93
2023/09/01 10:01:58;;;;;;;2.07;1.30;;;;;;;13.46;100.00;95889.53;7428398;19;20401;-94
2023/09/01 10:04:45;;;;;;;1.83;1.30;;;;;;;13.52;100.00;95912.03;7431521;19;20405;-94
2023/09/01 10:07:19;;;;;;;1.63;1.53;;;;;;;13.36;100.00;95897.34;7433100;19;20432;-94
2023/09/01 10:10:01;;;;;;;1.50;1.40;;;;;;;13.28;100.00;95875.97;7431681;19;20405;-95
2023/09/01 10:21:46;;;;;;;1.83;1.73;;;;;;;13.49;100.00;95923.38;6968626;19;8655729;-96
2023/09/01 10:24:16;;;;;;;3.20;2.30;;;;;;;13.29;100.00;95887.38;7431121;19;20120;-96
2023/09/01 10:26:46;;;;;;;2.43;2.33;;;;;;;13.45;100.00;95895.22;7433166;19;20393;-96
2023/09/01 10:29:34;;;;;;;2.40;2.30;;;;;;;12.91;100.00;95808.59;7427903;19;20409;-96
2023/09/01 10:32:17;;;;;;;3.00;2.80;;;;;;;13.54;100.00;95893.84;7429622;19;20441;-96
2023/09/01 10:34:59;;;;;;;3.00;2.50;;;;;;;14.45;100.00;96028.56;7433280;19;20392;-95
2023/09/01 10:38:32;;;;;;;2.10;2.00;;;;;;;14.24;100.00;95976.91;7431481;19;20400;-94
2023/09/01 10:42:07;;;;;;;2.67;2.47;;;;;;;13.63;100.00;95845.81;7432545;19;20447;-95
2023/09/01 10:45:11;;;;;;;2.10;2.00;;;;;;;14.81;100.00;95983.78;7431867;19;20400;-96
2023/09/01 10:47:59;;;;;;;2.33;1.87;;;;;;;13.96;100.00;95829.16;7430540;19;20396;-96
2023/09/01 10:51:25;;;;;;;2.47;2.27;;;;;;;14.86;100.00;95988.03;7431186;19;20392;-96
2023/09/01 10:54:15;;;;;;;2.40;2.13;;;;;;;15.14;100.00;96020.34;7431247;19;20423;-96
2023/09/01 10:56:57;;;;;;;2.10;1.90;;;;;;;13.89;100.00;95845.03;7430643;19;20385;-96
2023/09/01 10:59:36;;;;;;;1.90;1.80;;;;;;;13.46;100.00;95785.97;7429532;19;20412;-96
2023/09/01 11:02:33;;;;;;;2.80;2.00;;;;;;;15.04;100.00;96018.31;7427096;19;20404;-96
2023/09/01 11:05:01;;;;;;;1.87;1.73;;;;;;;13.46;100.00;95780.66;7428315;19;20385;-96
2023/09/01 11:08:08;;;;;;;1.73;1.60;;;;;;;14.05;100.00;95871.44;7432012;19;20396;-96
2023/09/01 11:10:40;;;;;;;2.33;1.43;;;;;;;14.26;100.00;95894.88;7432084;19;20433;-96
2023/09/01 11:13:17;;;;;;;1.50;1.40;;;;;;;14.30;100.00;95899.13;7430869;19;20432;-96
2023/09/01 11:16:22;;;;;;;1.80;1.70;;;;;;;15.35;100.00;96023.22;7428135;19;20388;-96
2023/09/01 11:19:11;;;;;;;1.60;1.33;;;;;;;15.37;100.00;96025.56;7432404;19;20377;-96
2023/09/01 11:22:09;;;;;;;1.70;1.60;;;;;;;14.24;100.00;95859.91;7430565;19;20464;-96
2023/09/01 11:25:23;;;;;;;2.03;1.83;;;;;;;14.55;100.00;95893.38;7431016;19;20401;-96
2023/09/01 11:27:50;;;;;;;1.70;1.60;;;;;;;14.40;100.00;95877.22;7427354;19;20385;-96
2023/09/01 11:30:22;;;;;;;3.33;2.27;;;;;;;14.52;100.00;95897.53;7430604;19;20444;-96
2023/09/01 11:32:54;;;;;;;2.93;2.73;;;;;;;14.62;100.00;95931.47;7439033;19;20429;-96
2023/09/01 11:35:27;;;;;;;1.70;1.40;;;;;;;15.13;100.00;96026.78;7437016;19;20413;-96
2023/09/01 11:37:57;;;;;;;1.40;1.30;;;;;;;14.10;100.00;95893.16;7435808;19;20365;-95
2023/09/01 11:40:26;;;;;;;2.00;1.90;;;;;;;13.90;100.00;95867.81;7437121;19;20389;-96
2023/09/01 12:03:22;;;;;;;2.00;1.60;;;;;;;14.97;100.00;95943.69;7426955;19;20460;-96
2023/09/01 12:05:50;;;;;;;1.97;1.43;;;;;;;14.82;100.00;95891.41;7435554;19;20411;-96
2023/09/01 12:08:35;;;;;;;1.87;1.70;;;;;;;15.91;100.00;96008.97;7436063;19;20373;-96
2023/09/01 12:11:07;;;;;;;3.00;2.80;;;;;;;15.26;100.00;95889.56;7434684;19;20416;-96
2023/09/01 12:13:36;;;;;;;2.33;1.53;;;;;;;15.07;100.00;95895.09;7434083;19;20381;-96
2023/09/01 12:16:07;;;;;;;1.90;1.80;;;;;;;15.01;100.00;95894.66;7433582;19;20383;-96
2023/09/01 12:18:38;;;;;;;2.30;2.20;;;;;;;14.42;100.00;95815.66;7438014;19;20388;-96
2023/09/01 12:21:10;;;;;;;1.60;1.40;;;;;;;14.98;100.00;95894.63;7435008;19;20412;-96
2023/09/01 12:23:43;;;;;;;5.07;2.10;;;;;;;15.13;100.00;95893.63;7433769;19;20373;-96
2023/09/01 12:26:14;;;;;;;2.20;1.77;;;;;;;15.26;100.00;95905.56;7437613;19;20384;-94
2023/09/01 12:28:45;;;;;;;3.40;2.20;;;;;;;15.54;100.00;95929.03;7433723;19;20377;-96
2023/09/01 12:31:15;;;;;;;3.30;3.00;;;;;;;16.35;100.00;95946.78;7435170;19;20428;-96
2023/09/01 12:33:51;;;;;;;4.60;4.20;;;;;;;16.72;100.00;96032.06;7435683;19;20381;-96
2023/09/01 12:36:22;;;;;;;2.13;1.93;;;;;;;15.63;100.00;95878.13;7433173;19;20385;-96
2023/09/01 12:38:50;;;;;;;2.93;1.57;;;;;;;16.04;100.00;95910.78;7435071;19;20433;-96
2023/09/01 12:41:22;;;;;;;2.73;1.90;;;;;;;16.41;100.00;95942.63;7431086;19;20417;-96
2023/09/01 12:43:49;;;;;;;5.50;3.80;;;;;;;16.11;100.00;95939.38;7430602;19;20376;-96
2023/09/01 12:46:17;;;;;;;3.03;2.83;;;;;;;16.29;100.00;95939.50;7436597;19;20389;-96
2023/09/01 12:48:47;;;;;;;2.73;2.43;;;;;;;16.94;100.00;96027.59;7433845;19;20388;-95
2023/09/01 12:51:15;;;;;;;2.10;1.67;;;;;;;15.19;100.00;95819.50;7435650;19;20444;-96
2023/09/01 12:53:44;;;;;;;2.37;2.17;;;;;;;16.57;100.00;96005.63;7434732;19;20393;-95
2023/09/01 12:56:14;;;;;;;1.80;1.70;;;;;;;16.04;100.00;95897.44;7437418;19;20416;-95
2023/09/01 12:58:51;;;;;;;2.13;1.97;;;;;;;16.43;100.00;95929.69;7435340;19;20389;-96
2023/09/01 13:01:18;;;;;;;4.37;3.83;;;;;;;17.42;100.00;95972.03;7429951;19;20436;-96
2023/09/01 13:03:48;;;;;;;2.10;2.00;;;;;;;16.88;100.00;95934.88;7435325;19;20389;-95
2023/09/01 13:06:34;;;;;;;2.50;2.30;;;;;;;16.45;100.00;95887.38;7434360;19;20405;-95
2023/09/01 13:09:09;;;;;;;2.97;2.50;;;;;;;17.17;100.00;96024.66;7434844;19;20391;-96
2023/09/01 13:11:44;;;;;;;2.67;2.47;;;;;;;16.50;100.00;95916.38;7431164;19;20406;-96
2023/09/01 13:14:23;;;;;;;2.60;1.87;;;;;;;16.35;100.00;95812.63;7431931;19;20381;-96
2023/09/01 13:17:04;;;;;;;2.20;2.10;;;;;;;16.75;100.00;95830.31;7435300;19;20393;-96
2023/09/01 13:19:53;;;;;;;2.27;2.07;;;;;;;17.61;100.00;95927.38;7435275;19;20385;-95
2023/09/01 13:22:28;;;;;;;1.80;1.70;;;;;;;18.14;100.00;96021.03;7430756;19;20424;-96
2023/09/01 13:25:09;;;;;;;2.40;2.20;;;;;;;17.46;100.00;95902.53;7435177;19;20417;-95
2023/09/01 13:40:23;;;;;;;2.17;1.97;;;;;;;18.20;100.00;96013.41;7415743;19;20443;-96
2023/09/01 13:43:16;;;;;;;2.10;1.90;;;;;;;18.16;100.00;96007.28;7435262;19;20695;-95
2023/09/01 13:46:31;;;;;;;8.90;7.47;;;;;;;16.70;100.00;95823.44;7430467;19;20404;-95
2023/09/01 13:55:32;;;;;;;;;;;;;;;;;;;;;
2023/09/01 13:58:18;;;;;;;2.30;2.10;;;;;;;17.11;100.00;95887.25;7429685;19;20376;-96
2023/09/01 14:01:04;;;;;;;4.20;3.87;;;;;;;16.80;100.00;95864.63;7430724;19;20417;-96
2023/09/01 14:03:53;;;;;;;2.70;2.33;;;;;;;17.58;100.00;96003.00;7433306;19;20385;-96
2023/09/01 14:06:53;;;;;;;2.23;2.07;;;;;;;16.01;100.00;95772.06;7432475;19;20388;-96
2023/09/01 14:09:32;;;;;;;3.63;1.97;;;;;;;16.04;100.00;95788.09;7429897;19;20404;-96
2023/09/01 14:12:29;;;;;;;3.17;2.87;;;;;;;17.35;100.00;96003.31;7428879;19;20460;-96
2023/09/01 14:15:23;;;;;;;2.30;2.10;;;;;;;15.37;100.00;95773.22;7432936;19;20373;-96
2023/09/01 20:25:51;;;;;;;;;;;;;;;;;;;;;
2023/09/01 20:29:34;;;;;;;3.77;3.10;;;;;;;12.34;100.00;95781.81;7427030;19;20420;-94
2023/09/01 20:32:44;;;;;;;3.57;2.93;;;;;;;13.21;100.00;95981.28;7430943;19;20389;-94
2023/09/01 20:36:03;;;;;;;4.37;3.43;;;;;;;12.82;100.00;95922.91;7433945;19;20392;-95
2023/09/01 20:39:48;;;;;;;4.40;2.80;;;;;;;12.32;100.00;95823.81;7433376;19;20444;-96
2023/09/01 21:37:55;;;;;;;1.90;1.80;;;;;;;14.00;100.00;96148.97;7421364;19;20424;-94
2023/09/01 21:41:00;;;;;;;2.80;2.23;;;;;;;13.96;100.00;96142.81;7425100;19;20383;-94
2023/09/01 21:44:51;;;;;;;7.50;2.30;;;;;;;12.77;100.00;95949.69;7428724;19;20387;-93
2023/09/01 21:48:47;;;;;;;;;;;;;;;;;;;;;
2023/09/01 21:55:14;;;;;;;2.27;2.00;;;;;;;11.80;100.00;95814.44;7426058;19;20378;-93
2023/09/01 21:58:22;;;;;;;1.93;1.77;;;;;;;12.58;100.00;95945.16;7421738;19;20437;-93
2023/09/01 22:01:39;;;;;;;1.93;1.77;;;;;;;11.89;100.00;95856.63;7422191;19;20393;-93
2023/09/01 22:04:53;;;;;;;7.30;2.17;;;;;;;13.95;100.00;96146.59;7416937;19;20416;-93
2023/09/01 22:08:10;;;;;;;2.93;2.03;;;;;;;11.93;100.00;95870.72;7425552;19;20460;-93
2023/09/01 22:11:37;;;;;;;1.90;1.80;;;;;;;14.02;100.00;96137.97;7428434;19;20381;-94
2023/09/01 22:18:02;;;;;;;3.00;1.80;;;;;;;13.50;100.00;96070.22;7425573;19;20405;-95
2023/09/01 23:03:41;;;;;;;2.00;1.80;;;;;;;12.26;100.00;95925.16;7433656;19;20425;-96
2023/09/01 23:06:13;;;;;;;2.47;2.13;;;;;;;13.67;100.00;96189.34;7426603;19;20401;-96
2023/09/01 23:08:46;;;;;;;3.90;2.30;;;;;;;13.19;100.00;96093.13;7431657;19;20381;-96
2023/09/01 23:11:20;;;;;;;3.20;2.97;;;;;;;13.18;100.00;96073.00;7428037;19;20784;-96
2023/09/01 23:13:48;;;;;;;3.03;2.33;;;;;;;13.27;100.00;96086.84;7426734;19;20450;-96
2023/09/01 23:16:19;;;;;;;2.37;2.20;;;;;;;12.98;100.00;96047.56;7431099;19;20396;-96
2023/09/01 23:18:58;;;;;;;4.83;2.43;;;;;;;13.12;100.00;96049.72;7432091;19;20384;-96
2023/09/01 23:21:26;;;;;;;9.90;3.10;;;;;;;12.40;100.00;95955.38;7430812;19;20389;-96
2023/09/01 23:23:57;;;;;;;2.70;2.50;;;;;;;12.24;100.00;95943.28;7429298;19;20377;-95
2023/09/01 23:26:26;;;;;;;2.50;2.27;;;;;;;12.95;100.00;96048.22;7432256;19;20404;-95
2023/09/01 23:29:03;;;;;;;3.37;2.80;;;;;;;13.32;100.00;96110.47;7436670;19;20382;-96
2023/09/01 23:31:39;;;;;;;3.10;2.23;;;;;;;12.16;100.00;95974.19;7439590;19;20416;-96
2023/09/01 23:34:37;;;;;;;2.93;2.47;;;;;;;12.11;100.00;95980.50;7434326;19;20377;-96
2023/09/01 23:37:52;;;;;;;1.90;1.80;;;;;;;13.07;100.00;96145.53;7437926;19;20373;-96
